Pontiac, Michigan
Current Conditions -  °F | °C
As of 2:53 PM on Wednesday 28 Jan 2015 (Local Time) from KPTK Reporting Station
Broken Clouds Broken Clouds  
Wind Chill: 20°   Ceiling: 26000
Heat Index: 29°   Visibility: 10mi
Dew Point:   Wind: 9mph
Humidity: 35%   Direction: 180°S
Pressure: 30.23"   Gusts: NA
Location:  42.64°N, 83.29°W
Report Text: KPTK 281953Z 18008KT 10SM BKN260 M02/M16 A3023 RMK AO2 SLP253 T10171156
Loading
Personal Weather Stations






























Interactive Weather Map New forecast layout! Learn more

10-Day Weather Forecast

Advertisements
Track Severe Weather on mobile